Station Historical Data
 
Daily Summary for February 19, 2018 Units:  Both    English   Metric
« Previous Day
Next Day »
Daily Weekly Monthly Yearly Custom
  Current: High: Low: Average:
Temperature: 47.8 °F /  8.8 °C 48.2 °F /  9 °C 38.8 °F /  3.8 °C 44.6 °F /  7 °C
Dew Point: 45.3 °F /  7.4 °C 45.7 °F /  7.6 °C 34.2 °F /  1.2 °C 41.3 °F /  5.2 °C
Humidity: 91 % 93 % 76 % 88 %
Wind Speed: 0.0 mph /  0 km/h 2.9 mph /  4.7 km/h - 0.1 mph /  0.2 km/h
Wind Gust: 0.0 mph /  0 km/h 4.0 mph /  6.4 km/h - -
Wind:Calm - - East
Pressure: 30.36 in /  1028 hPa 30.44 in /  1030.7 hPa 30.36 in /  1028 hPa -
Precipitation: 0.14 in /  3.56 mm      
Historical Graphs
 
 
WeatherCam27030





Forecast for Mount Airy, NC

Click for Mauston, Wisconsin Forecast
Tabular Data for February 19, 2018
Time Temperature Dew Point Pressure Wind Wind Speed Wind Gust Humidity Rainfall Rate (Hourly) solar Conditions
00:01 43.2 °F /  6.2 °C 36.5 °F /  2.5 °C 30.39 in /  1029 hPa Calm     77 % 0.00 in /  0 mm 0.0 W/m2
00:06 43.0 °F /  6.1 °C 36.9 °F /  2.7 °C 30.39 in /  1029 hPa Calm     79 % 0.00 in /  0 mm 0.0 W/m2
00:11 41.4 °F /  5.2 °C 35.4 °F /  1.9 °C 30.39 in /  1029 hPa Calm     79 % 0.00 in /  0 mm 0.0 W/m2
00:16 39.2 °F /  4 °C 34.2 °F /  1.2 °C 30.39 in /  1029 hPa Calm     82 % 0.00 in /  0 mm 0.0 W/m2
00:21 38.8 °F /  3.8 °C 34.3 °F /  1.3 °C 30.39 in /  1029 hPa Calm     84 % 0.00 in /  0 mm 0.0 W/m2
00:26 39.0 °F /  3.9 °C 34.5 °F /  1.4 °C 30.39 in /  1029 hPa Calm     84 % 0.00 in /  0 mm 0.0 W/m2
00:32 39.7 °F /  4.3 °C 35.2 °F /  1.8 °C 30.39 in /  1029 hPa Calm     84 % 0.00 in /  0 mm 0.0 W/m2
00:37 40.8 °F /  4.9 °C 35.8 °F /  2.1 °C 30.39 in /  1029 hPa Calm     82 % 0.00 in /  0 mm 0.0 W/m2
00:42 40.3 °F /  4.6 °C 35.6 °F /  2 °C 30.39 in /  1029 hPa Calm     83 % 0.00 in /  0 mm 0.0 W/m2
00:47 41.0 °F /  5 °C 36.5 °F /  2.5 °C 30.39 in /  1029 hPa Calm     84 % 0.00 in /  0 mm 0.0 W/m2
00:52 41.7 °F /  5.4 °C 36.3 °F /  2.4 °C 30.39 in /  1029 hPa Calm     81 % 0.00 in /  0 mm 0.0 W/m2
00:57 42.4 °F /  5.8 °C 36.7 °F /  2.6 °C 30.39 in /  1029 hPa Calm     80 % 0.00 in /  0 mm 0.0 W/m2
01:02 42.4 °F /  5.8 °C 37.0 °F /  2.8 °C 30.39 in /  1029 hPa Calm     81 % 0.00 in /  0 mm 0.0 W/m2
01:07 40.8 °F /  4.9 °C 35.8 °F /  2.1 °C 30.40 in /  1029.3 hPa Calm     82 % 0.00 in /  0 mm 0.0 W/m2
01:12 41.4 °F /  5.2 °C 36.3 °F /  2.4 °C 30.39 in /  1029 hPa Calm     82 % 0.00 in /  0 mm 0.0 W/m2
01:17 42.1 °F /  5.6 °C 36.7 °F /  2.6 °C 30.39 in /  1029 hPa Calm     81 % 0.00 in /  0 mm 0.0 W/m2
01:22 41.7 °F /  5.4 °C 36.3 °F /  2.4 °C 30.39 in /  1029 hPa Calm     81 % 0.00 in /  0 mm 0.0 W/m2
01:27 41.9 °F /  5.5 °C 36.9 °F /  2.7 °C 30.39 in /  1029 hPa Calm     82 % 0.00 in /  0 mm 0.0 W/m2
01:32 41.4 °F /  5.2 °C 36.3 °F /  2.4 °C 30.38 in /  1028.7 hPa Calm     82 % 0.00 in /  0 mm 0.0 W/m2
01:37 42.4 °F /  5.8 °C 36.3 °F /  2.4 °C 30.39 in /  1029 hPa Calm     79 % 0.00 in /  0 mm 0.0 W/m2
01:42 43.3 °F /  6.3 °C 36.7 °F /  2.6 °C 30.39 in /  1029 hPa Calm     77 % 0.00 in /  0 mm 0.0 W/m2
01:48 44.1 °F /  6.7 °C 37.4 °F /  3 °C 30.39 in /  1029 hPa Calm   1.0 mph /  1.6 km/h 77 % 0.00 in /  0 mm 0.0 W/m2
01:53 44.2 °F /  6.8 °C 37.2 °F /  2.9 °C 30.39 in /  1029 hPa Calm     76 % 0.00 in /  0 mm 0.0 W/m2
01:58 44.4 °F /  6.9 °C 37.6 °F /  3.1 °C 30.39 in /  1029 hPa Calm     77 % 0.00 in /  0 mm 0.0 W/m2
02:03 44.8 °F /  7.1 °C 37.8 °F /  3.2 °C 30.38 in /  1028.7 hPa Calm     76 % 0.00 in /  0 mm 0.0 W/m2
02:08 44.8 °F /  7.1 °C 37.9 °F /  3.3 °C 30.37 in /  1028.3 hPa NE 2.9 mph /  4.7 km/h 4.0 mph /  6.4 km/h 77 % 0.00 in /  0 mm 0.0 W/m2
02:13 44.6 °F /  7 °C 37.8 °F /  3.2 °C 30.37 in /  1028.3 hPa NE 2.0 mph /  3.2 km/h 2.0 mph /  3.2 km/h 77 % 0.00 in /  0 mm 0.0 W/m2
02:18 44.4 °F /  6.9 °C 37.6 °F /  3.1 °C 30.38 in /  1028.7 hPa NE 0.9 mph /  1.4 km/h 2.0 mph /  3.2 km/h 77 % 0.00 in /  0 mm 0.0 W/m2
02:23 45.0 °F /  7.2 °C 38.1 °F /  3.4 °C 30.38 in /  1028.7 hPa NE 2.0 mph /  3.2 km/h 2.0 mph /  3.2 km/h 77 % 0.00 in /  0 mm 0.0 W/m2
02:28 45.0 °F /  7.2 °C 38.1 °F /  3.4 °C 30.38 in /  1028.7 hPa NE 2.0 mph /  3.2 km/h 3.0 mph /  4.8 km/h 77 % 0.00 in /  0 mm 0.0 W/m2
02:33 45.1 °F /  7.3 °C 38.3 °F /  3.5 °C 30.39 in /  1029 hPa Calm     77 % 0.00 in /  0 mm 0.0 W/m2
02:38 45.3 °F /  7.4 °C 38.1 °F /  3.4 °C 30.38 in /  1028.7 hPa NNE 0.9 mph /  1.4 km/h 3.0 mph /  4.8 km/h 76 % 0.00 in /  0 mm 0.0 W/m2
02:43 45.3 °F /  7.4 °C 38.5 °F /  3.6 °C 30.37 in /  1028.3 hPa Calm   1.0 mph /  1.6 km/h 77 % 0.00 in /  0 mm 0.0 W/m2
02:48 44.8 °F /  7.1 °C 38.7 °F /  3.7 °C 30.38 in /  1028.7 hPa Calm     79 % 0.00 in /  0 mm 0.0 W/m2
02:53 44.2 °F /  6.8 °C 38.5 °F /  3.6 °C 30.38 in /  1028.7 hPa Calm     80 % 0.00 in /  0 mm 0.0 W/m2
02:58 44.4 °F /  6.9 °C 38.7 °F /  3.7 °C 30.37 in /  1028.3 hPa Calm     80 % 0.00 in /  0 mm 0.0 W/m2
03:03 44.8 °F /  7.1 °C 39.0 °F /  3.9 °C 30.36 in /  1028 hPa Calm     80 % 0.00 in /  0 mm 0.0 W/m2
03:08 44.6 °F /  7 °C 38.8 °F /  3.8 °C 30.37 in /  1028.3 hPa Calm     80 % 0.00 in /  0 mm 0.0 W/m2
03:13 44.8 °F /  7.1 °C 39.0 °F /  3.9 °C 30.38 in /  1028.7 hPa Calm     80 % 0.00 in /  0 mm 0.0 W/m2
03:18 44.6 °F /  7 °C 39.4 °F /  4.1 °C 30.38 in /  1028.7 hPa Calm     82 % 0.00 in /  0 mm 0.0 W/m2
03:23 44.6 °F /  7 °C 39.4 °F /  4.1 °C 30.37 in /  1028.3 hPa Calm     82 % 0.00 in /  0 mm 0.0 W/m2
03:29 44.6 °F /  7 °C 39.4 °F /  4.1 °C 30.37 in /  1028.3 hPa Calm     82 % 0.00 in /  0 mm 0.0 W/m2
03:34 44.8 °F /  7.1 °C 39.6 °F /  4.2 °C 30.37 in /  1028.3 hPa Calm     82 % 0.00 in /  0 mm 0.0 W/m2
03:39 44.8 °F /  7.1 °C 39.9 °F /  4.4 °C 30.37 in /  1028.3 hPa Calm     83 % 0.00 in /  0 mm 0.0 W/m2
03:44 44.4 °F /  6.9 °C 39.9 °F /  4.4 °C 30.37 in /  1028.3 hPa Calm     84 % 0.00 in /  0 mm 0.0 W/m2
03:49 44.2 °F /  6.8 °C 40.1 °F /  4.5 °C 30.37 in /  1028.3 hPa Calm     85 % 0.00 in /  0 mm 0.0 W/m2
03:54 44.6 °F /  7 °C 39.7 °F /  4.3 °C 30.39 in /  1029 hPa Calm   1.0 mph /  1.6 km/h 83 % 0.00 in /  0 mm 0.0 W/m2
04:00 45.0 °F /  7.2 °C 39.7 °F /  4.3 °C 30.39 in /  1029 hPa Calm     82 % 0.00 in /  0 mm 0.0 W/m2
04:05 45.0 °F /  7.2 °C 39.7 °F /  4.3 °C 30.38 in /  1028.7 hPa Calm     82 % 0.01 in /  0.25 mm 0.0 W/m2
04:10 44.8 °F /  7.1 °C 39.9 °F /  4.4 °C 30.38 in /  1028.7 hPa Calm     83 % 0.03 in /  0.76 mm 0.0 W/m2
04:15 44.2 °F /  6.8 °C 40.1 °F /  4.5 °C 30.39 in /  1029 hPa Calm     85 % 0.03 in /  0.76 mm 0.0 W/m2
04:20 44.1 °F /  6.7 °C 40.1 °F /  4.5 °C 30.39 in /  1029 hPa Calm     86 % 0.04 in /  1.02 mm 0.0 W/m2
04:25 44.1 °F /  6.7 °C 40.5 °F /  4.7 °C 30.40 in /  1029.3 hPa Calm     87 % 0.05 in /  1.27 mm 0.0 W/m2
04:30 44.1 °F /  6.7 °C 40.5 °F /  4.7 °C 30.39 in /  1029 hPa Calm     87 % 0.05 in /  1.27 mm 0.0 W/m2
04:35 43.9 °F /  6.6 °C 40.6 °F /  4.8 °C 30.40 in /  1029.3 hPa Calm     88 % 0.06 in /  1.52 mm 0.0 W/m2
04:40 43.3 °F /  6.3 °C 40.1 °F /  4.5 °C 30.40 in /  1029.3 hPa Calm     88 % 0.09 in /  2.29 mm 0.0 W/m2
04:45 43.2 °F /  6.2 °C 40.1 °F /  4.5 °C 30.40 in /  1029.3 hPa Calm     89 % 0.11 in /  2.79 mm 0.0 W/m2
04:50 43.3 °F /  6.3 °C 40.6 °F /  4.8 °C 30.40 in /  1029.3 hPa Calm     90 % 0.12 in /  3.05 mm 0.0 W/m2
04:55 43.3 °F /  6.3 °C 40.6 °F /  4.8 °C 30.40 in /  1029.3 hPa Calm     90 % 0.13 in /  3.3 mm 0.0 W/m2
05:00 43.3 °F /  6.3 °C 40.6 °F /  4.8 °C 30.40 in /  1029.3 hPa Calm     90 % 0.13 in /  3.3 mm 0.0 W/m2
05:06 43.3 °F /  6.3 °C 40.6 °F /  4.8 °C 30.40 in /  1029.3 hPa Calm     90 % 0.12 in /  3.05 mm 0.0 W/m2
05:11 43.3 °F /  6.3 °C 40.6 °F /  4.8 °C 30.41 in /  1029.7 hPa Calm     90 % 0.10 in /  2.54 mm 0.0 W/m2
05:16 43.2 °F /  6.2 °C 40.5 °F /  4.7 °C 30.41 in /  1029.7 hPa Calm     90 % 0.10 in /  2.54 mm 0.0 W/m2
05:21 43.3 °F /  6.3 °C 40.8 °F /  4.9 °C 30.41 in /  1029.7 hPa Calm     91 % 0.09 in /  2.29 mm 0.0 W/m2
05:26 43.3 °F /  6.3 °C 40.8 °F /  4.9 °C 30.41 in /  1029.7 hPa Calm     91 % 0.08 in /  2.03 mm 0.0 W/m2
05:31 43.3 °F /  6.3 °C 40.8 °F /  4.9 °C 30.41 in /  1029.7 hPa Calm     91 % 0.08 in /  2.03 mm 0.0 W/m2
05:36 43.5 °F /  6.4 °C 41.0 °F /  5 °C 30.41 in /  1029.7 hPa Calm     91 % 0.06 in /  1.52 mm 0.0 W/m2
05:41 43.5 °F /  6.4 °C 41.0 °F /  5 °C 30.41 in /  1029.7 hPa Calm     91 % 0.04 in /  1.02 mm 0.0 W/m2
05:46 43.2 °F /  6.2 °C 40.6 °F /  4.8 °C 30.41 in /  1029.7 hPa Calm     91 % 0.02 in /  0.51 mm 0.0 W/m2
05:51 43.2 °F /  6.2 °C 40.6 °F /  4.8 °C 30.41 in /  1029.7 hPa Calm     91 % 0.01 in /  0.25 mm 0.0 W/m2
05:56 43.0 °F /  6.1 °C 40.5 °F /  4.7 °C 30.41 in /  1029.7 hPa Calm     91 % 0.00 in /  0 mm 0.0 W/m2
06:01 43.0 °F /  6.1 °C 40.5 °F /  4.7 °C 30.41 in /  1029.7 hPa Calm     91 % 0.00 in /  0 mm 0.0 W/m2
06:06 43.0 °F /  6.1 °C 40.5 °F /  4.7 °C 30.41 in /  1029.7 hPa Calm     91 % 0.00 in /  0 mm 0.0 W/m2
06:11 43.3 °F /  6.3 °C 40.8 °F /  4.9 °C 30.41 in /  1029.7 hPa Calm     91 % 0.00 in /  0 mm 0.0 W/m2
06:16 43.3 °F /  6.3 °C 41.2 °F /  5.1 °C 30.41 in /  1029.7 hPa Calm     92 % 0.00 in /  0 mm 0.0 W/m2
06:21 43.5 °F /  6.4 °C 41.4 °F /  5.2 °C 30.41 in /  1029.7 hPa Calm     92 % 0.00 in /  0 mm 0.0 W/m2
06:26 43.5 °F /  6.4 °C 41.0 °F /  5 °C 30.41 in /  1029.7 hPa Calm     91 % 0.00 in /  0 mm 0.0 W/m2
06:31 43.3 °F /  6.3 °C 40.8 °F /  4.9 °C 30.41 in /  1029.7 hPa Calm     91 % 0.00 in /  0 mm 0.0 W/m2
06:36 43.2 °F /  6.2 °C 41.0 °F /  5 °C 30.41 in /  1029.7 hPa Calm     92 % 0.00 in /  0 mm 0.0 W/m2
06:42 43.0 °F /  6.1 °C 40.5 °F /  4.7 °C 30.41 in /  1029.7 hPa Calm     91 % 0.00 in /  0 mm 0.0 W/m2
06:47 43.2 °F /  6.2 °C 41.0 °F /  5 °C 30.41 in /  1029.7 hPa Calm     92 % 0.00 in /  0 mm 0.0 W/m2
06:52 43.3 °F /  6.3 °C 41.2 °F /  5.1 °C 30.41 in /  1029.7 hPa Calm     92 % 0.00 in /  0 mm 0.0 W/m2
06:57 43.3 °F /  6.3 °C 41.2 °F /  5.1 °C 30.41 in /  1029.7 hPa Calm     92 % 0.00 in /  0 mm 0.0 W/m2
07:02 43.5 °F /  6.4 °C 41.4 °F /  5.2 °C 30.41 in /  1029.7 hPa Calm     92 % 0.00 in /  0 mm 0.0 W/m2
07:07 43.5 °F /  6.4 °C 41.4 °F /  5.2 °C 30.41 in /  1029.7 hPa Calm     92 % 0.00 in /  0 mm 0.0 W/m2
07:12 43.5 °F /  6.4 °C 41.4 °F /  5.2 °C 30.41 in /  1029.7 hPa Calm     92 % 0.00 in /  0 mm 0.0 W/m2
07:17 43.5 °F /  6.4 °C 41.4 °F /  5.2 °C 30.42 in /  1030 hPa Calm     92 % 0.00 in /  0 mm 0.0 W/m2
07:22 43.7 °F /  6.5 °C 41.5 °F /  5.3 °C 30.42 in /  1030 hPa Calm     92 % 0.00 in /  0 mm 0.0 W/m2
07:27 43.9 °F /  6.6 °C 41.7 °F /  5.4 °C 30.42 in /  1030 hPa Calm     92 % 0.00 in /  0 mm 0.0 W/m2
07:32 43.9 °F /  6.6 °C 41.7 °F /  5.4 °C 30.42 in /  1030 hPa Calm     92 % 0.00 in /  0 mm 5.0 W/m2
07:37 43.5 °F /  6.4 °C 41.4 °F /  5.2 °C 30.42 in /  1030 hPa Calm     92 % 0.00 in /  0 mm 7.0 W/m2
07:42 43.5 °F /  6.4 °C 41.4 °F /  5.2 °C 30.42 in /  1030 hPa Calm     92 % 0.00 in /  0 mm 7.0 W/m2
07:47 43.7 °F /  6.5 °C 41.5 °F /  5.3 °C 30.43 in /  1030.4 hPa Calm     92 % 0.00 in /  0 mm 9.0 W/m2
07:53 43.3 °F /  6.3 °C 41.2 °F /  5.1 °C 30.43 in /  1030.4 hPa Calm     92 % 0.00 in /  0 mm 11.0 W/m2
07:58 43.3 °F /  6.3 °C 41.2 °F /  5.1 °C 30.42 in /  1030 hPa Calm     92 % 0.00 in /  0 mm 14.0 W/m2
08:03 43.3 °F /  6.3 °C 41.2 °F /  5.1 °C 30.43 in /  1030.4 hPa Calm     92 % 0.00 in /  0 mm 18.0 W/m2
08:08 43.5 °F /  6.4 °C 41.4 °F /  5.2 °C 30.42 in /  1030 hPa Calm     92 % 0.00 in /  0 mm 18.0 W/m2
08:13 43.7 °F /  6.5 °C 41.5 °F /  5.3 °C 30.43 in /  1030.4 hPa Calm     92 % 0.00 in /  0 mm 18.0 W/m2
08:18 43.9 °F /  6.6 °C 41.7 °F /  5.4 °C 30.43 in /  1030.4 hPa Calm     92 % 0.00 in /  0 mm 18.0 W/m2
08:23 43.9 °F /  6.6 °C 41.7 °F /  5.4 °C 30.42 in /  1030 hPa Calm     92 % 0.00 in /  0 mm 19.0 W/m2
08:28 43.9 °F /  6.6 °C 41.7 °F /  5.4 °C 30.43 in /  1030.4 hPa Calm     92 % 0.00 in /  0 mm 18.0 W/m2
08:33 43.9 °F /  6.6 °C 41.7 °F /  5.4 °C 30.43 in /  1030.4 hPa Calm     92 % 0.00 in /  0 mm 21.0 W/m2
08:38 44.1 °F /  6.7 °C 41.9 °F /  5.5 °C 30.43 in /  1030.4 hPa Calm     92 % 0.00 in /  0 mm 19.0 W/m2
08:43 44.1 °F /  6.7 °C 41.9 °F /  5.5 °C 30.43 in /  1030.4 hPa Calm     92 % 0.01 in /  0.25 mm 23.0 W/m2
08:48 44.1 °F /  6.7 °C 42.1 °F /  5.6 °C 30.43 in /  1030.4 hPa Calm     93 % 0.01 in /  0.25 mm 21.0 W/m2
08:53 44.1 °F /  6.7 °C 42.1 °F /  5.6 °C 30.43 in /  1030.4 hPa Calm     93 % 0.01 in /  0.25 mm 16.0 W/m2
08:59 44.2 °F /  6.8 °C 42.3 °F /  5.7 °C 30.43 in /  1030.4 hPa Calm     93 % 0.01 in /  0.25 mm 18.0 W/m2
09:04 44.2 °F /  6.8 °C 42.3 °F /  5.7 °C 30.43 in /  1030.4 hPa Calm     93 % 0.01 in /  0.25 mm 56.0 W/m2
09:09 44.2 °F /  6.8 °C 42.3 °F /  5.7 °C 30.43 in /  1030.4 hPa Calm     93 % 0.01 in /  0.25 mm 54.0 W/m2
09:14 44.4 °F /  6.9 °C 42.4 °F /  5.8 °C 30.43 in /  1030.4 hPa Calm     93 % 0.01 in /  0.25 mm 69.0 W/m2
09:19 44.4 °F /  6.9 °C 42.4 °F /  5.8 °C 30.43 in /  1030.4 hPa Calm     93 % 0.01 in /  0.25 mm 53.0 W/m2
09:24 44.8 °F /  7.1 °C 42.8 °F /  6 °C 30.44 in /  1030.7 hPa Calm     93 % 0.01 in /  0.25 mm 60.0 W/m2
09:29 45.0 °F /  7.2 °C 43.0 °F /  6.1 °C 30.43 in /  1030.4 hPa Calm     93 % 0.01 in /  0.25 mm 74.0 W/m2
09:34 45.0 °F /  7.2 °C 43.0 °F /  6.1 °C 30.43 in /  1030.4 hPa Calm     93 % 0.01 in /  0.25 mm 83.0 W/m2
09:39 45.0 °F /  7.2 °C 43.0 °F /  6.1 °C 30.44 in /  1030.7 hPa Calm     93 % 0.01 in /  0.25 mm 76.0 W/m2
09:44 45.0 °F /  7.2 °C 43.0 °F /  6.1 °C 30.44 in /  1030.7 hPa Calm     93 % 0.00 in /  0 mm 81.0 W/m2
09:49 45.1 °F /  7.3 °C 43.2 °F /  6.2 °C 30.44 in /  1030.7 hPa Calm     93 % 0.00 in /  0 mm 88.0 W/m2
09:54 45.1 °F /  7.3 °C 43.2 °F /  6.2 °C 30.44 in /  1030.7 hPa Calm     93 % 0.00 in /  0 mm 86.0 W/m2
09:59 45.1 °F /  7.3 °C 43.2 °F /  6.2 °C 30.44 in /  1030.7 hPa Calm     93 % 0.00 in /  0 mm 77.0 W/m2
10:04 45.3 °F /  7.4 °C 43.3 °F /  6.3 °C 30.44 in /  1030.7 hPa Calm     93 % 0.00 in /  0 mm 74.0 W/m2
10:09 45.7 °F /  7.6 °C 43.7 °F /  6.5 °C 30.44 in /  1030.7 hPa Calm     93 % 0.00 in /  0 mm 86.0 W/m2
10:14 45.3 °F /  7.4 °C 43.3 °F /  6.3 °C 30.43 in /  1030.4 hPa Calm     93 % 0.00 in /  0 mm 86.0 W/m2
10:19 45.9 °F /  7.7 °C 43.9 °F /  6.6 °C 30.43 in /  1030.4 hPa Calm     93 % 0.00 in /  0 mm 83.0 W/m2
10:24 46.0 °F /  7.8 °C 44.1 °F /  6.7 °C 30.43 in /  1030.4 hPa Calm     93 % 0.00 in /  0 mm 84.0 W/m2
10:29 46.0 °F /  7.8 °C 44.1 °F /  6.7 °C 30.44 in /  1030.7 hPa Calm     93 % 0.00 in /  0 mm 79.0 W/m2
10:34 46.0 °F /  7.8 °C 43.9 °F /  6.6 °C 30.44 in /  1030.7 hPa Calm     92 % 0.00 in /  0 mm 93.0 W/m2
10:39 46.2 °F /  7.9 °C 44.1 °F /  6.7 °C 30.43 in /  1030.4 hPa Calm     92 % 0.00 in /  0 mm 74.0 W/m2
10:44 45.9 °F /  7.7 °C 43.7 °F /  6.5 °C 30.43 in /  1030.4 hPa Calm     92 % 0.00 in /  0 mm 65.0 W/m2
10:49 46.2 °F /  7.9 °C 44.1 °F /  6.7 °C 30.44 in /  1030.7 hPa Calm     92 % 0.00 in /  0 mm 62.0 W/m2
10:55 46.2 °F /  7.9 °C 44.1 °F /  6.7 °C 30.44 in /  1030.7 hPa Calm     92 % 0.00 in /  0 mm 76.0 W/m2
11:00 46.2 °F /  7.9 °C 44.1 °F /  6.7 °C 30.44 in /  1030.7 hPa Calm     92 % 0.00 in /  0 mm 86.0 W/m2
11:05 46.2 °F /  7.9 °C 44.1 °F /  6.7 °C 30.44 in /  1030.7 hPa Calm     92 % 0.00 in /  0 mm 104.0 W/m2
11:10 46.8 °F /  8.2 °C 44.6 °F /  7 °C 30.43 in /  1030.4 hPa Calm     92 % 0.00 in /  0 mm 116.0 W/m2
11:15 46.6 °F /  8.1 °C 44.4 °F /  6.9 °C 30.43 in /  1030.4 hPa Calm   1.0 mph /  1.6 km/h 92 % 0.00 in /  0 mm 153.0 W/m2
11:20 46.6 °F /  8.1 °C 44.4 °F /  6.9 °C 30.43 in /  1030.4 hPa Calm     92 % 0.00 in /  0 mm 95.0 W/m2
11:25 46.8 °F /  8.2 °C 44.6 °F /  7 °C 30.43 in /  1030.4 hPa Calm     92 % 0.00 in /  0 mm 88.0 W/m2
11:30 46.9 °F /  8.3 °C 44.8 °F /  7.1 °C 30.42 in /  1030 hPa ENE 2.0 mph /  3.2 km/h 2.0 mph /  3.2 km/h 92 % 0.00 in /  0 mm 163.0 W/m2
11:35 47.5 °F /  8.6 °C 45.0 °F /  7.2 °C 30.42 in /  1030 hPa Calm     91 % 0.00 in /  0 mm 128.0 W/m2
11:40 47.3 °F /  8.5 °C 44.8 °F /  7.1 °C 30.42 in /  1030 hPa Calm     91 % 0.00 in /  0 mm 107.0 W/m2
11:45 46.9 °F /  8.3 °C 44.4 °F /  6.9 °C 30.42 in /  1030 hPa Calm   2.0 mph /  3.2 km/h 91 % 0.00 in /  0 mm 84.0 W/m2
11:50 47.1 °F /  8.4 °C 44.6 °F /  7 °C 30.42 in /  1030 hPa Calm     91 % 0.00 in /  0 mm 76.0 W/m2
11:55 46.9 °F /  8.3 °C 44.4 °F /  6.9 °C 30.42 in /  1030 hPa Calm     91 % 0.00 in /  0 mm 79.0 W/m2
12:00 46.9 °F /  8.3 °C 44.4 °F /  6.9 °C 30.42 in /  1030 hPa Calm     91 % 0.00 in /  0 mm 102.0 W/m2
12:05 47.1 °F /  8.4 °C 44.6 °F /  7 °C 30.41 in /  1029.7 hPa Calm     91 % 0.00 in /  0 mm 70.0 W/m2
12:10 47.3 °F /  8.5 °C 44.8 °F /  7.1 °C 30.40 in /  1029.3 hPa Calm     91 % 0.00 in /  0 mm 91.0 W/m2
12:15 47.5 °F /  8.6 °C 45.0 °F /  7.2 °C 30.40 in /  1029.3 hPa Calm     91 % 0.00 in /  0 mm 102.0 W/m2
12:20 47.5 °F /  8.6 °C 45.0 °F /  7.2 °C 30.40 in /  1029.3 hPa Calm   2.0 mph /  3.2 km/h 91 % 0.00 in /  0 mm 123.0 W/m2
12:25 47.7 °F /  8.7 °C 45.1 °F /  7.3 °C 30.40 in /  1029.3 hPa Calm     91 % 0.00 in /  0 mm 105.0 W/m2
12:30 47.5 °F /  8.6 °C 45.0 °F /  7.2 °C 30.39 in /  1029 hPa Calm     91 % 0.00 in /  0 mm 95.0 W/m2
12:36 47.5 °F /  8.6 °C 45.0 °F /  7.2 °C 30.39 in /  1029 hPa Calm     91 % 0.00 in /  0 mm 118.0 W/m2
12:41 47.7 °F /  8.7 °C 45.1 °F /  7.3 °C 30.39 in /  1029 hPa South 2.0 mph /  3.2 km/h 2.0 mph /  3.2 km/h 91 % 0.00 in /  0 mm 104.0 W/m2
12:46 47.8 °F /  8.8 °C 45.3 °F /  7.4 °C 30.39 in /  1029 hPa Calm     91 % 0.00 in /  0 mm 86.0 W/m2
12:51 47.5 °F /  8.6 °C 45.0 °F /  7.2 °C 30.39 in /  1029 hPa Calm     91 % 0.00 in /  0 mm 74.0 W/m2
12:56 47.7 °F /  8.7 °C 45.1 °F /  7.3 °C 30.39 in /  1029 hPa Calm   1.0 mph /  1.6 km/h 91 % 0.00 in /  0 mm 90.0 W/m2
13:01 47.8 °F /  8.8 °C 45.3 °F /  7.4 °C 30.39 in /  1029 hPa Calm     91 % 0.00 in /  0 mm 102.0 W/m2
13:06 47.8 °F /  8.8 °C 45.3 °F /  7.4 °C 30.39 in /  1029 hPa Calm     91 % 0.00 in /  0 mm 86.0 W/m2
13:11 47.8 °F /  8.8 °C 45.3 °F /  7.4 °C 30.39 in /  1029 hPa South 2.0 mph /  3.2 km/h 4.0 mph /  6.4 km/h 91 % 0.00 in /  0 mm 97.0 W/m2
13:16 47.8 °F /  8.8 °C 45.3 °F /  7.4 °C 30.39 in /  1029 hPa SSW 0.9 mph /  1.4 km/h 2.0 mph /  3.2 km/h 91 % 0.00 in /  0 mm 67.0 W/m2
13:21 47.8 °F /  8.8 °C 45.3 °F /  7.4 °C 30.38 in /  1028.7 hPa South 0.9 mph /  1.4 km/h 2.0 mph /  3.2 km/h 91 % 0.00 in /  0 mm 90.0 W/m2
13:26 47.8 °F /  8.8 °C 45.3 °F /  7.4 °C 30.38 in /  1028.7 hPa Calm   1.0 mph /  1.6 km/h 91 % 0.00 in /  0 mm 100.0 W/m2
13:31 47.8 °F /  8.8 °C 45.3 °F /  7.4 °C 30.37 in /  1028.3 hPa Calm     91 % 0.00 in /  0 mm 90.0 W/m2
13:36 47.8 °F /  8.8 °C 45.3 °F /  7.4 °C 30.37 in /  1028.3 hPa Calm     91 % 0.00 in /  0 mm 109.0 W/m2
13:41 47.8 °F /  8.8 °C 45.0 °F /  7.2 °C 30.37 in /  1028.3 hPa Calm     90 % 0.00 in /  0 mm 100.0 W/m2
13:46 48.0 °F /  8.9 °C 45.5 °F /  7.5 °C 30.37 in /  1028.3 hPa Calm     91 % 0.00 in /  0 mm 97.0 W/m2
13:51 48.2 °F /  9 °C 45.7 °F /  7.6 °C 30.37 in /  1028.3 hPa Calm     91 % 0.00 in /  0 mm 104.0 W/m2
13:56 47.8 °F /  8.8 °C 45.3 °F /  7.4 °C 30.37 in /  1028.3 hPa Calm     91 % 0.00 in /  0 mm 90.0 W/m2
14:01 47.8 °F /  8.8 °C 45.3 °F /  7.4 °C 30.36 in /  1028 hPa Calm     91 % 0.00 in /  0 mm 77.0 W/m2
14:07 47.8 °F /  8.8 °C 45.3 °F /  7.4 °C 30.36 in /  1028 hPa Calm     91 % 0.00 in /  0 mm 79.0 W/m2
14:12 47.7 °F /  8.7 °C 45.1 °F /  7.3 °C 30.36 in /  1028 hPa Calm     91 % 0.00 in /  0 mm 81.0 W/m2
14:17 47.8 °F /  8.8 °C 45.3 °F /  7.4 °C 30.36 in /  1028 hPa Calm     91 % 0.00 in /  0 mm 86.0 W/m2
Mount Airy, NC/Surry County Weather
Compliments of Weather Underground - 1.75 mb